Airfield :







YOU CAN JOIN US ON...

 
LOGIN :

Register | Disclaimer

   EN    FR    IT 

 









Legend :    VFR   Marginal VFR   IFR   Intensive IFR   Very Intensive IFR
Visi :
Ceiling :
>= 8 km
>= 3000ft
5 to 8 km
1000 to 3000 ft
1500m to 5 km
500 to 1000 ft
800 to 1500m
200 to 500 ft
< 800m
< 200 ft
Symbols :   Thunderstorms  Fog  Heavy snow  Heavy precipitations  Wind > 20 kt






- Airport Elevation : 118 ft
- IATA code : YUL


CYUL - Montréal - Pierre-Elliott-Trudeau Int.

CURRENT METAR :
  • 080700Z 26011KT 14SM OVC055 01/M02 A2992 RMK SC8 SLP134

EXPIRED METARs :
  • 080600Z 27009KT 15SM SCT060 BKN120 00/M02 A2989 RMK SC3AC2 SLP126
  • 080500Z 31005KT 280V340 12SM OVC058 00/M01 A2989 RMK SC8 SLP124

TAF TAF CYUL
Valid from the 08 at 06:00 until the 09 at 06:00 UTC


080540Z 0806/0906 27010G20KT P6SM FEW030 OVC060
FM081000 27012KT P6SM SCT015 BKN030
BECMG 0813/0815 26012G22KT
FM082000 26012G22KT P6SM BKN030
BECMG 0821/0823 26008KT RMK NXT FCST BY 080900Z
ATIS : ENG : +1 514-633-3037 FRA : +1 514-633-3034
CZUL FIR / North America



MET'MAP, your aeronautical weather chart ! - Copyright ORBIFLY December 2007 - Disclaimer

ORBIFLY MET'MAP TEAM :

Programming & Development : Alexandra Zaïnal
Original concept : Baudouin d'Aumeries
Technical & hardware support : Manuel Goepfert
Assistance : Marc-Olivier Méhu




SOURCES & CREDITS :

   NOAA